Time;durP1;ratioP1;P1;durP2;ratioP2;P2;SDS_P1;SDS_P2;PMS_P1;PMS_P2;Temp;Humidity;BMP_temperature;BMP_pressure;BME280_temperature;BME280_humidity;BME280_pressure;Samples;Min_cycle;Max_cycle;Signal;HPM_P1;HPM_P2
2023/12/02 00:00:32;;;;;;;15.55;11.55;;;;;;;;;;5073876;28;20060;-58
2023/12/02 00:02:59;;;;;;;14.88;11.98;;;;;;;;;;5074041;28;20055;-59
2023/12/02 00:05:27;;;;;;;14.05;11.45;;;;;;;;;;5076002;28;20788;-59
2023/12/02 00:07:54;;;;;;;14.68;11.25;;;;;;;;;;5078637;28;20409;-58
2023/12/02 00:10:21;;;;;;;15.13;11.50;;;;;;;;;;5093513;28;20056;-58
2023/12/02 00:12:48;;;;;;;16.08;11.88;;;;;;;;;;5077273;28;20059;-58
2023/12/02 00:15:15;;;;;;;14.88;11.18;;;;;;;;;;5076900;28;20049;-58
2023/12/02 00:17:41;;;;;;;13.45;11.10;;;;;;;;;;5076955;28;20055;-59
2023/12/02 00:20:08;;;;;;;14.23;11.05;;;;;;;;;;5074013;28;20052;-58
2023/12/02 00:22:37;;;;;;;14.70;11.10;;;;;;;;;;5072394;28;20063;-59
2023/12/02 00:25:04;;;;;;;14.07;11.52;;;;;;;;;;5076063;28;20052;-59
2023/12/02 00:27:31;;;;;;;14.80;11.18;;;;;;;;;;5074059;28;20453;-60
2023/12/02 00:29:57;;;;;;;13.98;10.57;;;;;;;;;;5077298;28;20048;-59
2023/12/02 00:32:24;;;;;;;13.35;10.68;;;;;;;;;;5076213;28;20048;-58
2023/12/02 00:34:51;;;;;;;15.63;12.02;;;;;;;;;;5070722;28;20040;-58
2023/12/02 00:37:18;;;;;;;14.30;11.27;;;;;;;;;;5074651;28;20048;-58
2023/12/02 00:39:46;;;;;;;16.77;11.95;;;;;;;;;;5078328;28;20573;-58
2023/12/02 00:42:13;;;;;;;14.98;11.15;;;;;;;;;;5073105;28;20083;-58
2023/12/02 00:44:39;;;;;;;14.32;11.20;;;;;;;;;;5070639;28;20409;-58
2023/12/02 00:47:06;;;;;;;17.33;12.65;;;;;;;;;;5070274;28;20048;-59
2023/12/02 00:49:33;;;;;;;14.20;11.38;;;;;;;;;;5073574;28;20044;-60
2023/12/02 00:52:00;;;;;;;13.93;10.43;;;;;;;;;;5068182;28;20052;-58
2023/12/02 00:54:27;;;;;;;15.38;11.45;;;;;;;;;;5078737;28;20048;-58
2023/12/02 00:56:55;;;;;;;14.25;11.60;;;;;;;;;;5076477;28;20405;-57
2023/12/02 00:59:22;;;;;;;14.85;10.98;;;;;;;;;;5071614;28;20060;-58
2023/12/02 01:01:48;;;;;;;15.75;11.90;;;;;;;;;;5072197;28;20053;-58
2023/12/02 01:04:15;;;;;;;14.27;10.98;;;;;;;;;;5076827;28;20051;-58
2023/12/02 01:06:42;;;;;;;14.05;10.98;;;;;;;;;;5089238;28;20408;-57
2023/12/02 01:09:09;;;;;;;13.25;10.73;;;;;;;;;;5073227;28;20059;-57
2023/12/02 01:11:35;;;;;;;13.88;10.50;;;;;;;;;;5084338;28;20048;-58
2023/12/02 01:14:04;;;;;;;13.27;9.85;;;;;;;;;;5077005;28;20048;-58
2023/12/02 01:16:31;;;;;;;13.95;10.05;;;;;;;;;;5075579;28;20063;-56
2023/12/02 01:18:57;;;;;;;11.82;9.07;;;;;;;;;;5075522;28;20051;-58
2023/12/02 01:21:24;;;;;;;13.52;10.18;;;;;;;;;;5072968;28;20059;-59
2023/12/02 01:23:51;;;;;;;11.65;9.48;;;;;;;;;;5075570;28;20056;-58
2023/12/02 01:26:18;;;;;;;13.88;9.38;;;;;;;;;;5070746;28;20093;-59
2023/12/02 01:28:44;;;;;;;12.35;9.77;;;;;;;;;;5071641;28;20501;-57
2023/12/02 01:31:12;;;;;;;13.25;10.48;;;;;;;;;;5072840;28;20523;-58
2023/12/02 01:33:39;;;;;;;13.20;9.27;;;;;;;;;;5073092;28;20045;-60
2023/12/02 01:36:06;;;;;;;13.43;10.07;;;;;;;;;;5073528;28;20052;-61
2023/12/02 01:38:33;;;;;;;13.23;9.98;;;;;;;;;;5071564;28;20133;-60
2023/12/02 01:41:00;;;;;;;12.13;9.75;;;;;;;;;;5073118;28;20374;-60
2023/12/02 01:43:27;;;;;;;12.50;9.68;;;;;;;;;;5076091;28;20518;-59
2023/12/02 01:45:54;;;;;;;13.10;10.30;;;;;;;;;;5075506;28;20055;-59
2023/12/02 01:48:23;;;;;;;10.70;8.75;;;;;;;;;;5074390;28;20055;-59
2023/12/02 01:50:49;;;;;;;11.32;9.05;;;;;;;;;;5072904;28;20048;-59
2023/12/02 01:53:16;;;;;;;11.15;9.27;;;;;;;;;;5068197;28;20055;-59
2023/12/02 01:55:44;;;;;;;11.45;8.88;;;;;;;;;;5071109;28;20055;-59
2023/12/02 01:58:10;;;;;;;11.65;8.82;;;;;;;;;;5074693;28;20059;-59
2023/12/02 02:00:37;;;;;;;9.82;8.13;;;;;;;;;;5080742;28;20055;-59
2023/12/02 02:03:04;;;;;;;10.77;8.10;;;;;;;;;;5092802;28;20063;-58
2023/12/02 02:05:32;;;;;;;11.70;9.00;;;;;;;;;;5088242;28;20063;-59
2023/12/02 02:07:59;;;;;;;12.73;9.30;;;;;;;;;;5075260;28;20067;-58
2023/12/02 02:10:26;;;;;;;11.65;8.30;;;;;;;;;;5074184;28;20059;-57
2023/12/02 02:12:53;;;;;;;12.45;9.07;;;;;;;;;;5070604;28;20060;-57
2023/12/02 02:15:19;;;;;;;10.40;8.18;;;;;;;;;;5078676;28;20069;-58
2023/12/02 02:17:46;;;;;;;10.48;8.48;;;;;;;;;;5074470;28;20048;-58
2023/12/02 02:20:13;;;;;;;11.55;9.23;;;;;;;;;;5085573;28;20427;-58
2023/12/02 02:22:41;;;;;;;11.18;9.00;;;;;;;;;;5092574;28;20052;-60
2023/12/02 02:25:08;;;;;;;10.68;8.43;;;;;;;;;;5072289;28;20067;-59
2023/12/02 02:27:35;;;;;;;10.93;8.55;;;;;;;;;;5072602;28;20056;-57
2023/12/02 02:30:02;;;;;;;12.63;9.07;;;;;;;;;;5085445;28;20067;-59
2023/12/02 02:32:29;;;;;;;10.70;7.90;;;;;;;;;;5092543;28;20048;-59
2023/12/02 02:34:55;;;;;;;11.32;8.48;;;;;;;;;;5091640;28;20044;-59
2023/12/02 02:37:22;;;;;;;12.25;9.07;;;;;;;;;;5072384;28;20057;-59
2023/12/02 02:39:51;;;;;;;11.73;9.48;;;;;;;;;;5072285;28;20055;-59
2023/12/02 02:42:17;;;;;;;12.05;9.40;;;;;;;;;;5071968;28;20052;-58
2023/12/02 02:44:44;;;;;;;12.70;9.70;;;;;;;;;;5071989;28;20044;-59
2023/12/02 02:47:11;;;;;;;12.93;9.98;;;;;;;;;;5072676;28;20052;-59
2023/12/02 02:49:38;;;;;;;13.30;10.30;;;;;;;;;;5074570;28;20060;-59
2023/12/02 02:52:05;;;;;;;20.55;13.98;;;;;;;;;;5076312;28;20063;-59
2023/12/02 02:54:32;;;;;;;21.10;15.10;;;;;;;;;;5076262;28;20059;-59
2023/12/02 02:57:00;;;;;;;16.95;13.30;;;;;;;;;;5076309;28;20485;-59
2023/12/02 02:59:27;;;;;;;21.17;14.82;;;;;;;;;;5076287;28;20049;-60
2023/12/02 03:01:54;;;;;;;19.98;14.45;;;;;;;;;;5076309;28;20500;-60
2023/12/02 03:04:20;;;;;;;21.13;15.18;;;;;;;;;;5094137;28;20050;-59
2023/12/02 03:06:47;;;;;;;20.92;15.73;;;;;;;;;;5096412;28;20063;-59
2023/12/02 03:09:14;;;;;;;19.92;15.05;;;;;;;;;;5096213;28;20060;-59
2023/12/02 03:11:41;;;;;;;24.17;16.48;;;;;;;;;;5093344;28;20056;-59
2023/12/02 03:14:09;;;;;;;21.70;15.23;;;;;;;;;;5075848;28;20048;-59
2023/12/02 03:16:36;;;;;;;20.40;14.90;;;;;;;;;;5075952;28;20052;-59
2023/12/02 03:19:03;;;;;;;22.85;16.13;;;;;;;;;;5071276;28;20067;-61
2023/12/02 03:21:30;;;;;;;22.88;15.18;;;;;;;;;;5074066;28;20049;-59
2023/12/02 03:23:56;;;;;;;22.48;15.57;;;;;;;;;;5080162;28;20069;-59
2023/12/02 03:26:24;;;;;;;24.08;16.25;;;;;;;;;;5078705;28;20045;-59
2023/12/02 03:28:50;;;;;;;23.15;15.95;;;;;;;;;;5072686;28;20067;-60
2023/12/02 03:31:18;;;;;;;20.95;14.55;;;;;;;;;;5073893;28;20400;-61
2023/12/02 03:33:45;;;;;;;23.23;15.63;;;;;;;;;;5079721;28;20048;-61
2023/12/02 03:36:12;;;;;;;23.08;15.40;;;;;;;;;;5079031;28;20044;-59
2023/12/02 03:38:40;;;;;;;22.00;15.23;;;;;;;;;;5077194;28;20052;-59
2023/12/02 03:41:08;;;;;;;23.20;15.00;;;;;;;;;;5074135;28;20067;-59
2023/12/02 03:43:35;;;;;;;22.33;15.05;;;;;;;;;;5072483;28;20060;-59
2023/12/02 03:46:02;;;;;;;21.02;14.70;;;;;;;;;;5085290;28;20056;-60
2023/12/02 03:48:30;;;;;;;22.55;15.73;;;;;;;;;;5074010;28;20053;-58
2023/12/02 03:50:57;;;;;;;21.35;14.85;;;;;;;;;;5087624;28;20056;-59
2023/12/02 03:53:25;;;;;;;22.05;14.98;;;;;;;;;;5093892;28;20401;-59
2023/12/02 03:55:53;;;;;;;21.52;14.50;;;;;;;;;;5093747;28;20059;-59
2023/12/02 03:58:20;;;;;;;20.40;14.45;;;;;;;;;;5093555;28;20063;-59
2023/12/02 04:00:47;;;;;;;21.90;14.93;;;;;;;;;;5093351;28;20480;-59
2023/12/02 04:03:14;;;;;;;20.17;13.45;;;;;;;;;;5088650;28;20052;-60
2023/12/02 04:05:43;;;;;;;21.38;13.90;;;;;;;;;;5083574;28;20055;-59
2023/12/02 04:08:10;;;;;;;19.53;12.67;;;;;;;;;;5073790;28;20077;-59
2023/12/02 04:10:37;;;;;;;19.80;13.60;;;;;;;;;;5074700;28;20512;-59
2023/12/02 04:13:05;;;;;;;20.23;13.10;;;;;;;;;;5093367;28;20438;-60
2023/12/02 04:15:32;;;;;;;20.77;14.45;;;;;;;;;;5093509;28;20473;-59
2023/12/02 04:17:59;;;;;;;19.35;13.10;;;;;;;;;;5093548;28;20173;-59
2023/12/02 04:20:25;;;;;;;21.52;14.30;;;;;;;;;;5093419;28;20052;-59
2023/12/02 04:22:54;;;;;;;19.33;13.60;;;;;;;;;;5093491;28;20051;-59
2023/12/02 04:25:21;;;;;;;21.25;14.02;;;;;;;;;;5092836;28;20059;-60
2023/12/02 04:27:47;;;;;;;19.77;13.85;;;;;;;;;;5092834;28;20059;-59
2023/12/02 04:30:14;;;;;;;21.27;14.48;;;;;;;;;;5093441;28;20405;-60
2023/12/02 04:32:41;;;;;;;20.73;13.82;;;;;;;;;;5093974;28;20059;-59
2023/12/02 04:35:08;;;;;;;19.75;13.60;;;;;;;;;;5093536;28;20370;-59
2023/12/02 04:37:35;;;;;;;18.95;13.20;;;;;;;;;;5093634;28;20063;-60
2023/12/02 04:40:10;;;;;;;20.60;13.65;;;;;;;;;;5076156;28;20512;-58
2023/12/02 04:42:37;;;;;;;19.30;14.00;;;;;;;;;;5030515;28;1221690;-58
2023/12/02 04:45:05;;;;;;;19.00;13.20;;;;;;;;;;5075220;28;20048;-59
2023/12/02 04:47:32;;;;;;;20.45;13.77;;;;;;;;;;5072106;28;20405;-59
2023/12/02 04:49:58;;;;;;;19.13;13.48;;;;;;;;;;5077042;28;20052;-59
2023/12/02 04:52:25;;;;;;;18.50;13.38;;;;;;;;;;5073750;28;20044;-59
2023/12/02 04:54:52;;;;;;;19.15;13.80;;;;;;;;;;5074062;28;20053;-60
2023/12/02 04:57:20;;;;;;;18.08;13.65;;;;;;;;;;5068618;28;21491;-59
2023/12/02 04:59:47;;;;;;;18.65;13.05;;;;;;;;;;5078461;28;20053;-59
2023/12/02 05:02:14;;;;;;;17.58;12.48;;;;;;;;;;5076764;28;20060;-58
2023/12/02 05:04:41;;;;;;;17.83;11.63;;;;;;;;;;5076804;28;20385;-59
2023/12/02 05:07:08;;;;;;;18.60;13.35;;;;;;;;;;5078107;28;20047;-61
2023/12/02 05:09:37;;;;;;;17.75;12.43;;;;;;;;;;5072041;28;20063;-59
2023/12/02 05:12:04;;;;;;;17.92;12.27;;;;;;;;;;5076681;28;20056;-60
2023/12/02 05:14:32;;;;;;;14.73;11.32;;;;;;;;;;5073227;28;20052;-59
2023/12/02 05:16:58;;;;;;;17.50;12.40;;;;;;;;;;5085260;28;20064;-59
2023/12/02 05:19:25;;;;;;;17.30;11.77;;;;;;;;;;5073304;28;20059;-59
2023/12/02 05:21:52;;;;;;;15.45;10.65;;;;;;;;;;5071279;28;20059;-60
2023/12/02 05:24:19;;;;;;;14.27;10.35;;;;;;;;;;5077129;28;20048;-59
2023/12/02 05:26:46;;;;;;;14.45;10.40;;;;;;;;;;5080656;28;20407;-59
2023/12/02 05:29:13;;;;;;;16.23;9.88;;;;;;;;;;5073035;28;20056;-59
2023/12/02 05:31:41;;;;;;;13.13;9.40;;;;;;;;;;5075122;28;20056;-59
2023/12/02 05:34:07;;;;;;;12.32;9.23;;;;;;;;;;5077251;28;20071;-59
2023/12/02 05:36:34;;;;;;;15.10;10.80;;;;;;;;;;5072197;28;20409;-58
2023/12/02 05:39:01;;;;;;;13.88;10.27;;;;;;;;;;5069186;28;20052;-59
2023/12/02 05:41:28;;;;;;;13.65;10.05;;;;;;;;;;5069433;28;20071;-59
2023/12/02 05:43:55;;;;;;;14.02;9.95;;;;;;;;;;5068462;28;20044;-59
2023/12/02 05:46:22;;;;;;;13.30;9.38;;;;;;;;;;5072268;28;20381;-59
2023/12/02 05:48:50;;;;;;;12.18;9.00;;;;;;;;;;5076907;28;20056;-59
2023/12/02 05:51:17;;;;;;;14.40;9.65;;;;;;;;;;5076592;28;20052;-59
2023/12/02 05:53:44;;;;;;;14.05;9.80;;;;;;;;;;5070863;28;20063;-60
2023/12/02 05:56:11;;;;;;;16.33;10.98;;;;;;;;;;5074833;28;20055;-58
2023/12/02 05:58:38;;;;;;;15.43;11.32;;;;;;;;;;5078633;28;20052;-59
2023/12/02 06:01:05;;;;;;;16.23;11.68;;;;;;;;;;5082884;28;20060;-60
2023/12/02 06:03:32;;;;;;;15.85;11.90;;;;;;;;;;5093096;28;20047;-60
2023/12/02 06:06:01;;;;;;;16.13;11.32;;;;;;;;;;5092931;28;20412;-59
2023/12/02 06:08:28;;;;;;;19.67;11.95;;;;;;;;;;5093028;28;20056;-59
2023/12/02 06:10:54;;;;;;;13.82;10.15;;;;;;;;;;5091544;28;20416;-60
2023/12/02 06:13:21;;;;;;;16.08;10.45;;;;;;;;;;5093018;28;20059;-59
2023/12/02 06:15:48;;;;;;;16.00;10.90;;;;;;;;;;5092828;28;20052;-59
2023/12/02 06:18:15;;;;;;;15.10;11.00;;;;;;;;;;5074796;28;20078;-59
2023/12/02 06:20:41;;;;;;;13.60;10.35;;;;;;;;;;5072348;28;20064;-59
2023/12/02 06:23:10;;;;;;;15.23;11.02;;;;;;;;;;5088071;28;20484;-59
2023/12/02 06:25:37;;;;;;;15.27;10.63;;;;;;;;;;5092343;28;20052;-60
2023/12/02 06:28:04;;;;;;;17.45;10.75;;;;;;;;;;5091739;28;20454;-59
2023/12/02 06:30:31;;;;;;;13.70;10.88;;;;;;;;;;5092252;28;20413;-60
2023/12/02 06:32:58;;;;;;;15.73;11.45;;;;;;;;;;5092566;28;20052;-60
2023/12/02 06:35:25;;;;;;;15.48;11.50;;;;;;;;;;5092444;28;20101;-60
2023/12/02 06:37:52;;;;;;;17.00;11.35;;;;;;;;;;5092109;28;20048;-59
2023/12/02 06:40:20;;;;;;;17.02;11.55;;;;;;;;;;5092086;28;20052;-60
2023/12/02 06:42:47;;;;;;;18.35;12.63;;;;;;;;;;5092064;28;20242;-59
2023/12/02 06:45:13;;;;;;;16.95;12.02;;;;;;;;;;5091604;28;20400;-59
2023/12/02 06:47:40;;;;;;;18.50;12.15;;;;;;;;;;5092621;28;20055;-60
2023/12/02 06:50:08;;;;;;;15.82;11.35;;;;;;;;;;5092001;28;20408;-59
2023/12/02 06:52:35;;;;;;;14.30;10.68;;;;;;;;;;5092561;28;20056;-59
2023/12/02 06:55:02;;;;;;;14.95;11.05;;;;;;;;;;5071868;28;20056;-59
2023/12/02 06:57:32;;;;;;;13.43;10.18;;;;;;;;;;5072235;28;20060;-59
2023/12/02 06:59:59;;;;;;;14.98;10.40;;;;;;;;;;5072835;28;20063;-59
2023/12/02 07:02:26;;;;;;;14.57;10.68;;;;;;;;;;5076696;28;20049;-59
2023/12/02 07:04:53;;;;;;;14.55;10.27;;;;;;;;;;5092294;28;20071;-60
2023/12/02 07:07:19;;;;;;;13.93;9.93;;;;;;;;;;5084632;28;20052;-59
2023/12/02 07:09:46;;;;;;;16.27;10.88;;;;;;;;;;5074982;28;20074;-60
2023/12/02 07:12:13;;;;;;;16.95;10.43;;;;;;;;;;5072086;28;20753;-60
2023/12/02 07:14:41;;;;;;;13.75;10.30;;;;;;;;;;5074014;28;20064;-59
2023/12/02 07:17:08;;;;;;;15.10;10.32;;;;;;;;;;5073735;28;20044;-59
2023/12/02 07:19:35;;;;;;;14.18;10.07;;;;;;;;;;5071882;28;20123;-59
2023/12/02 07:22:02;;;;;;;13.68;10.10;;;;;;;;;;5075306;28;20400;-60
2023/12/02 07:24:28;;;;;;;14.95;10.23;;;;;;;;;;5080971;28;20044;-59
2023/12/02 07:26:55;;;;;;;14.93;10.40;;;;;;;;;;5092143;28;20056;-59
2023/12/02 07:29:22;;;;;;;14.20;9.80;;;;;;;;;;5075252;28;20056;-59
2023/12/02 07:31:50;;;;;;;14.70;10.00;;;;;;;;;;5071999;28;20049;-59
2023/12/02 07:34:17;;;;;;;14.82;10.48;;;;;;;;;;5071557;28;20060;-59
2023/12/02 07:36:44;;;;;;;13.95;9.73;;;;;;;;;;5076078;28;20056;-59
2023/12/02 07:39:11;;;;;;;14.18;9.95;;;;;;;;;;5075246;28;20052;-60
2023/12/02 07:41:38;;;;;;;14.60;10.70;;;;;;;;;;5092236;28;20469;-59
2023/12/02 07:44:05;;;;;;;13.75;10.65;;;;;;;;;;5095476;28;20052;-60
2023/12/02 07:46:32;;;;;;;14.23;10.55;;;;;;;;;;5093811;28;20052;-59
2023/12/02 07:49:00;;;;;;;15.27;10.95;;;;;;;;;;5095452;28;20056;-59
2023/12/02 07:51:27;;;;;;;14.82;11.05;;;;;;;;;;5094915;28;20469;-59
2023/12/02 07:53:54;;;;;;;14.45;10.05;;;;;;;;;;5075245;28;20055;-58
2023/12/02 07:56:20;;;;;;;14.10;10.75;;;;;;;;;;5074619;28;20064;-58
2023/12/02 07:58:47;;;;;;;17.80;13.00;;;;;;;;;;5075050;28;20386;-59
2023/12/02 08:01:14;;;;;;;21.27;14.77;;;;;;;;;;5074799;28;20403;-59
2023/12/02 08:03:41;;;;;;;17.48;12.32;;;;;;;;;;5088534;28;20056;-58
2023/12/02 08:06:10;;;;;;;17.10;9.60;;;;;;;;;;5095189;28;20058;-59
2023/12/02 08:08:37;;;;;;;14.05;9.77;;;;;;;;;;5093535;28;20362;-59
2023/12/02 08:11:03;;;;;;;12.32;10.23;;;;;;;;;;5074651;28;20083;-59
2023/12/02 08:13:30;;;;;;;13.35;9.57;;;;;;;;;;5074687;28;20052;-58
2023/12/02 08:15:57;;;;;;;16.08;10.60;;;;;;;;;;5074587;28;20418;-59
2023/12/02 08:18:24;;;;;;;16.95;9.90;;;;;;;;;;5073924;28;20044;-59
2023/12/02 08:20:51;;;;;;;13.85;8.88;;;;;;;;;;5074397;28;20052;-59
2023/12/02 08:23:19;;;;;;;12.30;9.50;;;;;;;;;;5074772;28;20057;-58
2023/12/02 08:25:46;;;;;;;13.82;9.88;;;;;;;;;;5074400;28;20048;-59
2023/12/02 08:28:14;;;;;;;12.65;9.55;;;;;;;;;;5082835;28;20473;-59
2023/12/02 08:30:41;;;;;;;12.73;10.02;;;;;;;;;;5090079;28;20114;-58
2023/12/02 08:33:07;;;;;;;13.50;9.10;;;;;;;;;;5091989;28;20059;-59
2023/12/02 08:35:34;;;;;;;14.32;9.65;;;;;;;;;;5073966;28;20417;-59
2023/12/02 08:38:01;;;;;;;11.73;9.32;;;;;;;;;;5080711;28;20055;-59
2023/12/02 08:40:29;;;;;;;11.43;8.43;;;;;;;;;;5086747;28;20063;-60
2023/12/02 08:42:56;;;;;;;13.95;10.27;;;;;;;;;;5088856;28;20064;-61
2023/12/02 08:45:23;;;;;;;14.25;9.50;;;;;;;;;;5077322;28;20131;-60
2023/12/02 08:47:50;;;;;;;16.30;10.68;;;;;;;;;;5077418;28;20044;-59
2023/12/02 08:50:17;;;;;;;14.20;9.73;;;;;;;;;;5090377;28;20071;-59
2023/12/02 08:52:44;;;;;;;12.55;9.30;;;;;;;;;;5094257;28;20055;-58
2023/12/02 08:55:10;;;;;;;12.38;9.18;;;;;;;;;;5087745;28;20056;-59
2023/12/02 08:57:38;;;;;;;10.90;8.45;;;;;;;;;;5080797;28;20477;-58
2023/12/02 09:00:06;;;;;;;15.90;10.27;;;;;;;;;;5088643;28;20056;-59
2023/12/02 09:02:33;;;;;;;12.07;9.48;;;;;;;;;;5077326;28;20048;-59
2023/12/02 09:05:02;;;;;;;12.73;9.50;;;;;;;;;;5090202;28;20118;-59
2023/12/02 09:07:29;;;;;;;17.33;10.20;;;;;;;;;;5074602;28;20043;-58
2023/12/02 09:09:56;;;;;;;11.90;9.25;;;;;;;;;;5073415;28;20417;-59
2023/12/02 09:12:22;;;;;;;14.32;9.57;;;;;;;;;;5074247;28;20506;-59
2023/12/02 09:15:05;;;;;;;10.60;8.13;;;;;;;;;;5085932;28;20044;-58
2023/12/02 09:17:45;;;;;;;11.40;8.77;;;;;;;;;;5082416;28;20457;-58
2023/12/02 09:20:25;;;;;;;11.38;8.50;;;;;;;;;;5079358;28;20123;-58
2023/12/02 09:22:52;;;;;;;11.85;8.32;;;;;;;;;;5073230;28;20064;-58
2023/12/02 09:25:25;;;;;;;11.68;7.70;;;;;;;;;;5072849;28;20408;-60
2023/12/02 09:28:07;;;;;;;10.77;7.85;;;;;;;;;;5073193;28;20405;-59
2023/12/02 09:30:35;;;;;;;11.07;8.13;;;;;;;;;;5060221;28;20048;-59
2023/12/02 09:33:01;;;;;;;11.18;8.32;;;;;;;;;;5087890;28;20067;-59
2023/12/02 09:35:28;;;;;;;10.55;8.15;;;;;;;;;;5078643;28;20041;-58
2023/12/02 09:37:56;;;;;;;10.32;8.13;;;;;;;;;;5084780;28;20048;-58
2023/12/02 09:40:36;;;;;;;10.05;8.25;;;;;;;;;;5086235;28;20060;-59
2023/12/02 09:43:16;;;;;;;10.18;8.45;;;;;;;;;;5073725;28;20048;-56
2023/12/02 09:45:49;;;;;;;9.93;7.88;;;;;;;;;;5079323;28;20058;-57
2023/12/02 09:48:20;;;;;;;10.00;8.20;;;;;;;;;;5083951;28;20044;-57
2023/12/02 09:50:53;;;;;;;10.32;7.47;;;;;;;;;;5073768;28;20056;-58
2023/12/02 09:53:24;;;;;;;10.73;8.18;;;;;;;;;;5091492;28;20052;-58
2023/12/02 09:55:54;;;;;;;11.05;7.53;;;;;;;;;;5092903;28;20052;-58
2023/12/02 09:58:24;;;;;;;9.75;8.05;;;;;;;;;;5090638;28;20044;-58
2023/12/02 10:00:53;;;;;;;10.27;7.40;;;;;;;;;;5078295;28;20055;-58
2023/12/02 10:03:35;;;;;;;8.60;7.10;;;;;;;;;;5077459;28;20068;-58
2023/12/02 10:06:06;;;;;;;9.25;7.93;;;;;;;;;;5070991;28;20500;-58
2023/12/02 10:08:39;;;;;;;10.95;8.65;;;;;;;;;;5071711;28;20415;-58
2023/12/02 10:11:08;;;;;;;9.68;8.20;;;;;;;;;;5072365;28;20056;-58
2023/12/02 10:13:42;;;;;;;10.13;7.95;;;;;;;;;;5070663;28;20095;-58
2023/12/02 10:16:13;;;;;;;10.02;7.45;;;;;;;;;;5070785;28;20056;-57
2023/12/02 10:18:44;;;;;;;10.60;8.32;;;;;;;;;;5071802;28;20052;-56
2023/12/02 10:21:11;;;;;;;11.23;8.23;;;;;;;;;;5071810;28;20060;-57
2023/12/02 10:23:45;;;;;;;9.52;7.93;;;;;;;;;;5071507;28;20048;-57
2023/12/02 10:26:16;;;;;;;9.10;7.30;;;;;;;;;;5073169;28;20058;-57
2023/12/02 10:28:47;;;;;;;8.43;6.97;;;;;;;;;;5074303;28;20049;-58
2023/12/02 10:31:19;;;;;;;9.63;7.90;;;;;;;;;;5080276;28;20048;-58
2023/12/02 10:33:48;;;;;;;10.27;8.10;;;;;;;;;;5072877;28;20055;-58
2023/12/02 10:36:16;;;;;;;10.95;8.48;;;;;;;;;;5071860;28;20048;-58
2023/12/02 10:38:46;;;;;;;11.48;9.52;;;;;;;;;;5075578;28;20048;-58
2023/12/02 10:41:16;;;;;;;10.60;8.93;;;;;;;;;;5074254;28;20508;-58
2023/12/02 10:43:44;;;;;;;11.43;9.23;;;;;;;;;;5071307;28;20068;-58
2023/12/02 10:46:11;;;;;;;11.23;9.35;;;;;;;;;;5082031;28;20412;-58
2023/12/02 10:48:40;;;;;;;13.07;11.18;;;;;;;;;;5073585;28;20051;-58
2023/12/02 10:51:08;;;;;;;11.90;10.60;;;;;;;;;;5069169;28;20397;-59
2023/12/02 10:53:36;;;;;;;12.40;10.85;;;;;;;;;;5076160;28;20055;-58
2023/12/02 10:56:07;;;;;;;10.75;9.65;;;;;;;;;;5078612;28;20052;-59
2023/12/02 10:58:35;;;;;;;13.50;10.75;;;;;;;;;;5071873;28;20048;-59
2023/12/02 11:01:05;;;;;;;11.75;9.93;;;;;;;;;;5084430;28;20051;-59
2023/12/02 11:03:36;;;;;;;18.90;12.85;;;;;;;;;;5082609;28;20044;-57
2023/12/02 11:06:06;;;;;;;12.63;11.13;;;;;;;;;;5074463;28;20404;-59
2023/12/02 11:08:32;;;;;;;;;;;;;;;;;;5076679;28;20404;-57
2023/12/02 11:10:59;;;;;;;17.55;13.13;;;;;;;;;;5078473;28;19931;-60
2023/12/02 11:13:29;;;;;;;12.90;10.80;;;;;;;;;;5079999;28;20143;-57
2023/12/02 11:15:55;;;;;;;;;;;;;;;;;;5080927;28;20492;-58
2023/12/02 11:18:29;;;;;;;10.88;9.77;;;;;;;;;;5076680;28;19927;-58
2023/12/02 11:21:01;;;;;;;11.50;10.18;;;;;;;;;;5077353;28;20052;-58
2023/12/02 11:23:37;;;;;;;11.63;10.43;;;;;;;;;;5089453;28;20056;-58
2023/12/02 11:26:12;;;;;;;15.15;11.90;;;;;;;;;;5095760;28;20075;-59
2023/12/02 11:28:45;;;;;;;15.00;13.40;;;;;;;;;;5076773;28;20413;-58
2023/12/02 11:31:21;;;;;;;15.02;13.57;;;;;;;;;;5075143;28;20060;-58
2023/12/02 11:33:54;;;;;;;15.48;13.88;;;;;;;;;;5086339;28;20056;-58
2023/12/02 11:36:27;;;;;;;15.63;14.02;;;;;;;;;;5095396;28;20052;-58
2023/12/02 11:39:03;;;;;;;17.25;14.90;;;;;;;;;;5092726;28;20051;-58
2023/12/02 11:41:37;;;;;;;16.00;14.40;;;;;;;;;;5075159;28;20056;-58
2023/12/02 11:44:10;;;;;;;17.70;15.93;;;;;;;;;;5077517;28;20149;-58
2023/12/02 11:46:41;;;;;;;17.10;15.40;;;;;;;;;;5088309;28;20058;-58
2023/12/02 11:49:16;;;;;;;18.23;16.27;;;;;;;;;;5083780;28;20485;-58
2023/12/02 11:51:46;;;;;;;16.63;14.93;;;;;;;;;;5086249;28;20450;-58
2023/12/02 11:54:25;;;;;;;17.42;15.43;;;;;;;;;;5082528;28;20511;-59
2023/12/02 11:57:01;;;;;;;15.93;14.23;;;;;;;;;;5083095;28;20468;-59
2023/12/02 11:59:31;;;;;;;17.52;14.60;;;;;;;;;;5079041;28;20045;-58
2023/12/02 12:02:02;;;;;;;14.52;13.02;;;;;;;;;;5083434;28;20063;-59
2023/12/02 12:04:37;;;;;;;15.05;13.45;;;;;;;;;;5074937;28;20057;-58
2023/12/02 12:07:09;;;;;;;16.95;14.65;;;;;;;;;;5076464;28;20052;-58
2023/12/02 12:09:40;;;;;;;19.92;15.45;;;;;;;;;;5086410;28;20047;-59
2023/12/02 12:12:08;;;;;;;18.42;15.75;;;;;;;;;;5072671;28;20049;-58
2023/12/02 12:14:37;;;;;;;17.88;14.85;;;;;;;;;;5072607;28;20063;-58
2023/12/02 12:17:04;;;;;;;17.35;14.23;;;;;;;;;;5072566;28;20466;-58
2023/12/02 12:19:30;;;;;;;19.25;15.60;;;;;;;;;;5075189;28;20055;-57
2023/12/02 12:21:57;;;;;;;20.30;15.27;;;;;;;;;;5081234;28;20049;-57
2023/12/02 12:24:24;;;;;;;21.00;15.25;;;;;;;;;;5083351;28;20055;-57
2023/12/02 12:26:52;;;;;;;17.92;14.45;;;;;;;;;;5084379;28;20048;-59
2023/12/02 12:29:19;;;;;;;16.33;13.02;;;;;;;;;;5078334;28;20048;-59
2023/12/02 12:31:46;;;;;;;14.45;11.20;;;;;;;;;;5079769;28;20051;-58
2023/12/02 12:34:13;;;;;;;18.17;10.90;;;;;;;;;;5082926;28;20062;-59
2023/12/02 12:36:41;;;;;;;13.20;10.68;;;;;;;;;;5083420;28;20067;-59
2023/12/02 12:39:08;;;;;;;11.63;10.25;;;;;;;;;;5082438;28;20045;-58
2023/12/02 12:41:37;;;;;;;14.52;11.80;;;;;;;;;;5081968;28;20055;-58
2023/12/02 12:44:06;;;;;;;14.13;12.00;;;;;;;;;;5072668;28;20525;-58
2023/12/02 12:46:33;;;;;;;13.35;11.52;;;;;;;;;;5082005;28;20055;-58
2023/12/02 12:49:03;;;;;;;13.60;11.32;;;;;;;;;;5081752;28;20052;-59
2023/12/02 12:51:30;;;;;;;12.30;10.73;;;;;;;;;;5082705;28;20052;-58
2023/12/02 12:53:59;;;;;;;13.85;11.48;;;;;;;;;;5081411;28;20048;-57
2023/12/02 12:56:34;;;;;;;12.55;10.65;;;;;;;;;;5081646;28;20059;-58
2023/12/02 12:59:01;;;;;;;13.98;11.15;;;;;;;;;;5081962;28;20059;-58
2023/12/02 13:01:30;;;;;;;14.23;10.45;;;;;;;;;;5081902;28;20052;-58
2023/12/02 13:03:59;;;;;;;15.75;11.27;;;;;;;;;;5079976;28;20059;-57
2023/12/02 13:06:26;;;;;;;;;;;;;;;;;;5080553;28;20412;-58
2023/12/02 13:09:01;;;;;;;11.98;9.80;;;;;;;;;;5084755;28;19926;-59
2023/12/02 13:11:30;;;;;;;14.13;10.70;;;;;;;;;;5080557;28;20055;-58
2023/12/02 13:13:59;;;;;;;16.58;11.27;;;;;;;;;;5084175;28;20044;-58
2023/12/02 13:16:26;;;;;;;14.93;10.80;;;;;;;;;;5079758;28;20060;-57
2023/12/02 13:18:55;;;;;;;15.65;11.63;;;;;;;;;;5079486;28;20063;-58
2023/12/02 13:21:23;;;;;;;14.20;11.02;;;;;;;;;;5080563;28;20049;-57
2023/12/02 13:23:51;;;;;;;14.63;10.95;;;;;;;;;;5078656;28;20467;-57
2023/12/02 13:26:18;;;;;;;13.10;11.05;;;;;;;;;;5079219;28;20496;-58
2023/12/02 13:28:45;;;;;;;13.40;10.82;;;;;;;;;;5079991;28;20052;-58
2023/12/02 13:31:13;;;;;;;13.85;10.80;;;;;;;;;;5077031;28;20048;-57
2023/12/02 13:33:44;;;;;;;14.90;10.70;;;;;;;;;;5078343;28;20071;-57
2023/12/02 13:36:14;;;;;;;15.55;10.80;;;;;;;;;;5078539;28;20426;-58
2023/12/02 13:38:41;;;;;;;;;;;;;;;;;;5080131;28;20052;-58
2023/12/02 13:41:12;;;;;;;14.73;11.18;;;;;;;;;;5080501;28;20292;-58
2023/12/02 13:43:42;;;;;;;15.35;11.05;;;;;;;;;;5079702;28;20064;-58
2023/12/02 13:46:13;;;;;;;14.30;11.35;;;;;;;;;;5070706;28;20048;-56
2023/12/02 13:48:46;;;;;;;13.32;11.02;;;;;;;;;;5078061;28;20492;-58
2023/12/02 13:51:24;;;;;;;15.13;11.05;;;;;;;;;;5082853;28;20047;-58
2023/12/02 13:53:58;;;;;;;32.25;20.13;;;;;;;;;;5078310;28;20071;-57
2023/12/02 13:56:26;;;;;;;16.17;11.43;;;;;;;;;;5082416;28;20052;-57
2023/12/02 13:59:04;;;;;;;14.07;11.00;;;;;;;;;;5080260;28;20147;-58
2023/12/02 14:01:32;;;;;;;20.10;12.88;;;;;;;;;;5078589;28;20059;-58
2023/12/02 14:04:11;;;;;;;14.18;10.35;;;;;;;;;;5081626;28;20404;-58
2023/12/02 14:06:42;;;;;;;15.43;11.90;;;;;;;;;;5078645;28;20413;-58
2023/12/02 14:09:09;;;;;;;16.88;12.70;;;;;;;;;;5078899;28;20105;-57
2023/12/02 14:11:42;;;;;;;17.65;13.07;;;;;;;;;;5076384;28;20051;-57
2023/12/02 14:14:18;;;;;;;16.08;12.00;;;;;;;;;;5083428;28;20048;-56
2023/12/02 14:16:49;;;;;;;15.23;12.07;;;;;;;;;;5080649;28;20048;-57
2023/12/02 14:19:40;;;;;;;16.02;11.40;;;;;;;;;;5080157;28;20059;-57
2023/12/02 14:22:22;;;;;;;15.15;11.38;;;;;;;;;;5078810;28;20051;-58
2023/12/02 14:25:01;;;;;;;17.25;11.45;;;;;;;;;;5070843;28;20048;-58
2023/12/02 14:27:39;;;;;;;14.35;11.23;;;;;;;;;;5077872;28;20048;-57
2023/12/02 14:30:13;;;;;;;16.38;12.15;;;;;;;;;;5078173;28;20108;-57